sensor_id;sensor_type;location;lat;lon;timestamp;pressure;altitude;pressure_sealevel;temperature;humidity
46724;BME280;32463;48.298;11.620;2023-01-28T16:07:57;97066.09;;;-0.82;100.00
46724;BME280;32463;48.298;11.620;2023-01-28T16:10:28;97068.56;;;-0.81;100.00
46724;BME280;32463;48.298;11.620;2023-01-28T16:13:05;97079.44;;;-0.77;100.00
46724;BME280;32463;48.298;11.620;2023-01-28T16:15:32;97076.00;;;-0.76;100.00
46724;BME280;32463;48.298;11.620;2023-01-28T16:18:00;97080.25;;;-0.77;100.00
46724;BME280;32463;48.298;11.620;2023-01-28T16:20:28;97083.72;;;-0.78;100.00
46724;BME280;32463;48.298;11.620;2023-01-28T16:23:02;97077.78;;;-0.78;100.00
46724;BME280;32463;48.298;11.620;2023-01-28T16:25:34;97083.72;;;-0.78;100.00
46724;BME280;32463;48.298;11.620;2023-01-28T16:28:02;97091.19;;;-0.75;100.00
46724;BME280;32463;48.298;11.620;2023-01-28T16:30:33;97093.63;;;-0.72;100.00
46724;BME280;32463;48.298;11.620;2023-01-28T16:33:00;97095.53;;;-0.77;100.00
46724;BME280;32463;48.298;11.620;2023-01-28T16:35:28;97102.00;;;-0.70;100.00
46724;BME280;32463;48.298;11.620;2023-01-28T16:37:54;97103.94;;;-0.75;100.00
46724;BME280;32463;48.298;11.620;2023-01-28T16:40:22;97111.38;;;-0.70;100.00
46724;BME280;32463;48.298;11.620;2023-01-28T16:42:52;97114.66;;;-0.68;100.00
46724;BME280;32463;48.298;11.620;2023-01-28T16:45:22;97107.22;;;-0.73;100.00
46724;BME280;32463;48.298;11.620;2023-01-28T16:47:50;97110.25;;;-0.64;100.00
46724;BME280;32463;48.298;11.620;2023-01-28T16:50:18;97120.31;;;-0.61;100.00
46724;BME280;32463;48.298;11.620;2023-01-28T16:52:47;97102.84;;;-0.69;100.00
46724;BME280;32463;48.298;11.620;2023-01-28T16:55:18;97116.84;;;-0.60;100.00
46724;BME280;32463;48.298;11.620;2023-01-28T16:57:46;97111.59;;;-0.57;100.00
46724;BME280;32463;48.298;11.620;2023-01-28T17:00:21;97113.38;;;-0.59;100.00
46724;BME280;32463;48.298;11.620;2023-01-28T17:02:49;97113.56;;;-0.62;100.00
46724;BME280;32463;48.298;11.620;2023-01-28T17:05:16;97111.28;;;-0.69;100.00
46724;BME280;32463;48.298;11.620;2023-01-28T17:07:45;97111.44;;;-0.72;100.00
46724;BME280;32463;48.298;11.620;2023-01-28T17:10:13;97119.75;;;-0.68;100.00
46724;BME280;32463;48.298;11.620;2023-01-28T17:12:40;97112.94;;;-0.68;100.00
46724;BME280;32463;48.298;11.620;2023-01-28T17:15:06;97118.78;;;-0.65;100.00
46724;BME280;32463;48.298;11.620;2023-01-28T17:17:33;97128.16;;;-0.66;100.00
46724;BME280;32463;48.298;11.620;2023-01-28T17:20:00;97125.53;;;-0.64;100.00
46724;BME280;32463;48.298;11.620;2023-01-28T17:22:27;97124.16;;;-0.72;100.00
46724;BME280;32463;48.298;11.620;2023-01-28T17:24:53;97124.97;;;-0.71;100.00
46724;BME280;32463;48.298;11.620;2023-01-28T17:27:20;97125.94;;;-0.74;100.00
46724;BME280;32463;48.298;11.620;2023-01-28T17:29:46;97131.19;;;-0.77;100.00
46724;BME280;32463;48.298;11.620;2023-01-28T17:32:12;97123.69;;;-0.80;100.00
46724;BME280;32463;48.298;11.620;2023-01-28T17:34:39;97137.50;;;-0.66;100.00
46724;BME280;32463;48.298;11.620;2023-01-28T17:37:05;97143.44;;;-0.66;100.00
46724;BME280;32463;48.298;11.620;2023-01-28T17:39:32;97132.41;;;-0.66;100.00
46724;BME280;32463;48.298;11.620;2023-01-28T17:41:59;97133.03;;;-0.61;100.00
46724;BME280;32463;48.298;11.620;2023-01-28T17:44:25;97135.03;;;-0.68;100.00
46724;BME280;32463;48.298;11.620;2023-01-28T17:46:52;97135.16;;;-0.71;100.00
46724;BME280;32463;48.298;11.620;2023-01-28T17:49:18;97136.00;;;-0.71;100.00
46724;BME280;32463;48.298;11.620;2023-01-28T17:51:45;97133.59;;;-0.74;100.00
46724;BME280;32463;48.298;11.620;2023-01-28T17:54:14;97146.31;;;-0.74;100.00
46724;BME280;32463;48.298;11.620;2023-01-28T17:56:41;97141.38;;;-0.77;100.00
46724;BME280;32463;48.298;11.620;2023-01-28T17:59:08;97145.50;;;-0.74;100.00
46724;BME280;32463;48.298;11.620;2023-01-28T18:01:36;97134.63;;;-0.78;100.00
46724;BME280;32463;48.298;11.620;2023-01-28T18:04:03;97150.38;;;-0.70;100.00
46724;BME280;32463;48.298;11.620;2023-01-28T18:06:31;97142.38;;;-0.81;100.00
46724;BME280;32463;48.298;11.620;2023-01-28T18:08:58;97144.25;;;-0.84;100.00
46724;BME280;32463;48.298;11.620;2023-01-28T18:11:24;97157.53;;;-0.78;100.00
46724;BME280;32463;48.298;11.620;2023-01-28T18:13:52;97161.59;;;-0.74;100.00
46724;BME280;32463;48.298;11.620;2023-01-28T18:16:19;97156.38;;;-0.71;100.00
46724;BME280;32463;48.298;11.620;2023-01-28T18:18:47;97162.00;;;-0.64;100.00
46724;BME280;32463;48.298;11.620;2023-01-28T18:21:40;97161.69;;;-0.58;100.00
46724;BME280;32463;48.298;11.620;2023-01-28T18:24:07;97161.63;;;-0.56;100.00
46724;BME280;32463;48.298;11.620;2023-01-28T18:26:34;97163.34;;;-0.57;100.00
46724;BME280;32463;48.298;11.620;2023-01-28T18:29:00;97163.41;;;-0.58;100.00
46724;BME280;32463;48.298;11.620;2023-01-28T18:31:27;97158.56;;;-0.63;100.00
46724;BME280;32463;48.298;11.620;2023-01-28T18:33:53;97158.56;;;-0.63;100.00
46724;BME280;32463;48.298;11.620;2023-01-28T18:36:21;97152.47;;;-0.60;100.00
46724;BME280;32463;48.298;11.620;2023-01-28T18:38:48;97153.47;;;-0.63;100.00
46724;BME280;32463;48.298;11.620;2023-01-28T18:41:14;97142.59;;;-0.66;100.00
46724;BME280;32463;48.298;11.620;2023-01-28T18:43:41;97160.13;;;-0.60;100.00
46724;BME280;32463;48.298;11.620;2023-01-28T18:46:11;97162.75;;;-0.62;100.00
46724;BME280;32463;48.298;11.620;2023-01-28T18:48:38;97162.97;;;-0.66;100.00
46724;BME280;32463;48.298;11.620;2023-01-28T18:51:05;97168.75;;;-0.63;100.00
46724;BME280;32463;48.298;11.620;2023-01-28T18:53:33;97168.75;;;-0.63;100.00
46724;BME280;32463;48.298;11.620;2023-01-28T18:56:01;97168.59;;;-0.60;100.00
46724;BME280;32463;48.298;11.620;2023-01-28T18:58:28;97169.56;;;-0.62;100.00
46724;BME280;32463;48.298;11.620;2023-01-28T19:00:54;97172.84;;;-0.60;100.00
46724;BME280;32463;48.298;11.620;2023-01-28T19:03:21;97165.31;;;-0.62;100.00
46724;BME280;32463;48.298;11.620;2023-01-28T19:05:50;97174.66;;;-0.62;100.00
46724;BME280;32463;48.298;11.620;2023-01-28T19:08:17;97167.09;;;-0.64;100.00
46724;BME280;32463;48.298;11.620;2023-01-28T19:10:43;97163.72;;;-0.64;100.00
46724;BME280;32463;48.298;11.620;2023-01-28T19:13:10;97166.53;;;-0.71;100.00
46724;BME280;32463;48.298;11.620;2023-01-28T19:15:36;97155.75;;;-0.76;100.00
46724;BME280;32463;48.298;11.620;2023-01-28T19:18:02;97155.75;;;-0.76;100.00
46724;BME280;32463;48.298;11.620;2023-01-28T19:20:29;97164.34;;;-0.78;100.00
46724;BME280;32463;48.298;11.620;2023-01-28T19:22:55;97148.38;;;-0.82;100.00
46724;BME280;32463;48.298;11.620;2023-01-28T19:25:22;97154.72;;;-0.72;100.00
46724;BME280;32463;48.298;11.620;2023-01-28T19:27:51;97158.09;;;-0.71;100.00
46724;BME280;32463;48.298;11.620;2023-01-28T19:30:18;97156.50;;;-0.74;100.00
46724;BME280;32463;48.298;11.620;2023-01-28T19:32:45;97158.97;;;-0.72;100.00
46724;BME280;32463;48.298;11.620;2023-01-28T19:35:11;97163.09;;;-0.70;100.00
46724;BME280;32463;48.298;11.620;2023-01-28T19:37:38;97161.47;;;-0.71;100.00
46724;BME280;32463;48.298;11.620;2023-01-28T19:40:05;97159.81;;;-0.72;100.00
46724;BME280;32463;48.298;11.620;2023-01-28T19:42:31;97153.88;;;-0.72;100.00
46724;BME280;32463;48.298;11.620;2023-01-28T19:44:58;97148.84;;;-0.74;100.00
46724;BME280;32463;48.298;11.620;2023-01-28T19:47:24;97157.13;;;-0.69;100.00
46724;BME280;32463;48.298;11.620;2023-01-28T19:49:51;97161.47;;;-0.71;100.00
46724;BME280;32463;48.298;11.620;2023-01-28T19:52:18;97155.53;;;-0.71;100.00
46724;BME280;32463;48.298;11.620;2023-01-28T19:54:45;97160.63;;;-0.71;100.00
46724;BME280;32463;48.298;11.620;2023-01-28T19:57:12;97166.81;;;-0.77;100.00
46724;BME280;32463;48.298;11.620;2023-01-28T19:59:38;97164.47;;;-0.81;100.00
46724;BME280;32463;48.298;11.620;2023-01-28T20:02:05;97164.41;;;-0.80;100.00
46724;BME280;32463;48.298;11.620;2023-01-28T20:04:31;97165.28;;;-0.81;100.00
46724;BME280;32463;48.298;11.620;2023-01-28T20:06:58;97165.28;;;-0.81;100.00
46724;BME280;32463;48.298;11.620;2023-01-28T20:09:24;97164.41;;;-0.80;100.00
46724;BME280;32463;48.298;11.620;2023-01-28T20:11:51;97168.59;;;-0.79;100.00
46724;BME280;32463;48.298;11.620;2023-01-28T20:14:17;97170.31;;;-0.79;100.00
46724;BME280;32463;48.298;11.620;2023-01-28T20:16:45;97171.09;;;-0.77;100.00
46724;BME280;32463;48.298;11.620;2023-01-28T20:19:15;97175.47;;;-0.81;100.00
46724;BME280;32463;48.298;11.620;2023-01-28T20:21:42;97185.53;;;-0.78;100.00
46724;BME280;32463;48.298;11.620;2023-01-28T20:24:11;97174.72;;;-0.83;100.00
46724;BME280;32463;48.298;11.620;2023-01-28T20:26:39;97180.50;;;-0.79;100.00
46724;BME280;32463;48.298;11.620;2023-01-28T20:29:08;97188.13;;;-0.79;100.00
46724;BME280;32463;48.298;11.620;2023-01-28T20:31:36;97183.19;;;-0.82;100.00
46724;BME280;32463;48.298;11.620;2023-01-28T20:34:03;97184.00;;;-0.82;100.00
46724;BME280;32463;48.298;11.620;2023-01-28T20:36:29;97182.34;;;-0.83;100.00
46724;BME280;32463;48.298;11.620;2023-01-28T20:38:56;97185.03;;;-0.86;100.00
46724;BME280;32463;48.298;11.620;2023-01-28T20:41:24;97195.09;;;-0.83;100.00
46724;BME280;32463;48.298;11.620;2023-01-28T20:43:52;97188.34;;;-0.84;100.00
46724;BME280;32463;48.298;11.620;2023-01-28T20:46:21;97196.75;;;-0.82;100.00
46724;BME280;32463;48.298;11.620;2023-01-28T20:48:49;97198.31;;;-0.79;100.00
46724;BME280;32463;48.298;11.620;2023-01-28T20:51:18;97190.88;;;-0.84;100.00
46724;BME280;32463;48.298;11.620;2023-01-28T20:53:45;97193.94;;;-0.76;100.00
46724;BME280;32463;48.298;11.620;2023-01-28T20:56:13;97202.19;;;-0.71;100.00
46724;BME280;32463;48.298;11.620;2023-01-28T20:58:41;97195.44;;;-0.72;100.00
46724;BME280;32463;48.298;11.620;2023-01-28T21:01:16;97207.91;;;-0.65;100.00
46724;BME280;32463;48.298;11.620;2023-01-28T21:03:43;97200.28;;;-0.65;100.00
46724;BME280;32463;48.298;11.620;2023-01-28T21:06:09;97201.84;;;-0.63;100.00
46724;BME280;32463;48.298;11.620;2023-01-28T21:08:36;97202.50;;;-0.59;100.00
46724;BME280;32463;48.298;11.620;2023-01-28T21:11:04;97211.66;;;-0.55;100.00
46724;BME280;32463;48.298;11.620;2023-01-28T21:13:31;97213.19;;;-0.51;100.00
46724;BME280;32463;48.298;11.620;2023-01-28T21:15:58;97213.31;;;-0.54;100.00
46724;BME280;32463;48.298;11.620;2023-01-28T21:18:25;97212.56;;;-0.56;100.00
46724;BME280;32463;48.298;11.620;2023-01-28T21:20:54;97214.84;;;-0.50;100.00
46724;BME280;32463;48.298;11.620;2023-01-28T21:23:24;97217.59;;;-0.55;100.00
46724;BME280;32463;48.298;11.620;2023-01-28T21:25:50;97217.06;;;-0.61;100.00
46724;BME280;32463;48.298;11.620;2023-01-28T21:28:20;97216.91;;;-0.58;100.00
46724;BME280;32463;48.298;11.620;2023-01-28T21:30:46;97220.91;;;-0.53;100.00
46724;BME280;32463;48.298;11.620;2023-01-28T21:33:13;97225.16;;;-0.53;100.00
46724;BME280;32463;48.298;11.620;2023-01-28T21:35:41;97220.63;;;-0.47;100.00
46724;BME280;32463;48.298;11.620;2023-01-28T21:38:09;97210.56;;;-0.50;100.00
46724;BME280;32463;48.298;11.620;2023-01-28T21:40:36;97215.13;;;-0.56;100.00
46724;BME280;32463;48.298;11.620;2023-01-28T21:43:03;97220.63;;;-0.65;100.00
46724;BME280;32463;48.298;11.620;2023-01-28T21:45:29;97217.34;;;-0.68;100.00
46724;BME280;32463;48.298;11.620;2023-01-28T21:47:55;97225.66;;;-0.64;100.00
46724;BME280;32463;48.298;11.620;2023-01-28T21:50:22;97224.00;;;-0.65;100.00
46724;BME280;32463;48.298;11.620;2023-01-28T21:52:49;97228.16;;;-0.62;100.00
46724;BME280;32463;48.298;11.620;2023-01-28T21:55:16;97229.78;;;-0.61;100.00
46724;BME280;32463;48.298;11.620;2023-01-28T21:57:43;97227.25;;;-0.61;100.00
46724;BME280;32463;48.298;11.620;2023-01-28T22:00:10;97229.78;;;-0.61;100.00
46724;BME280;32463;48.298;11.620;2023-01-28T22:02:38;97224.06;;;-0.66;100.00
46724;BME280;32463;48.298;11.620;2023-01-28T22:05:05;97223.94;;;-0.63;100.00
46724;BME280;32463;48.298;11.620;2023-01-28T22:07:32;97226.00;;;-0.72;100.00
46724;BME280;32463;48.298;11.620;2023-01-28T22:09:58;97222.81;;;-0.77;100.00
46724;BME280;32463;48.298;11.620;2023-01-28T22:12:25;97234.66;;;-0.76;100.00
46724;BME280;32463;48.298;11.620;2023-01-28T22:14:52;97237.97;;;-0.74;100.00
46724;BME280;32463;48.298;11.620;2023-01-28T22:17:20;97234.53;;;-0.73;100.00
46724;BME280;32463;48.298;11.620;2023-01-28T22:19:46;97221.16;;;-0.78;100.00
46724;BME280;32463;48.298;11.620;2023-01-28T22:22:14;97237.00;;;-0.71;100.00
46724;BME280;32463;48.298;11.620;2023-01-28T22:24:40;97234.53;;;-0.73;100.00
46724;BME280;32463;48.298;11.620;2023-01-28T22:27:07;97240.44;;;-0.72;100.00
46724;BME280;32463;48.298;11.620;2023-01-28T22:29:34;97232.75;;;-0.71;100.00
46724;BME280;32463;48.298;11.620;2023-01-28T22:32:00;97229.44;;;-0.73;100.00
46724;BME280;32463;48.298;11.620;2023-01-28T22:34:28;97229.44;;;-0.73;100.00
46724;BME280;32463;48.298;11.620;2023-01-28T22:36:55;97223.59;;;-0.75;100.00
46724;BME280;32463;48.298;11.620;2023-01-28T22:39:21;97219.25;;;-0.73;100.00
46724;BME280;32463;48.298;11.620;2023-01-28T22:41:48;97224.28;;;-0.71;100.00
46724;BME280;32463;48.298;11.620;2023-01-28T22:44:15;97212.56;;;-0.75;100.00
46724;BME280;32463;48.298;11.620;2023-01-28T22:46:43;97210.97;;;-0.78;100.00
46724;BME280;32463;48.298;11.620;2023-01-28T22:49:11;97216.97;;;-0.79;100.00
46724;BME280;32463;48.298;11.620;2023-01-28T22:51:39;97214.41;;;-0.79;100.00
46724;BME280;32463;48.298;11.620;2023-01-28T22:54:05;97214.28;;;-0.76;100.00
46724;BME280;32463;48.298;11.620;2023-01-28T22:56:33;97225.38;;;-0.77;100.00
46724;BME280;32463;48.298;11.620;2023-01-28T22:59:01;97227.16;;;-0.79;100.00
